Terminal Aerodrome Forecast
Issued by NWS

Home | Current Version | Previous Version | Text Only | Print | Product List | Glossary On
Versions: 1 2 3 4 5 6 7 8 9 10 11 12 13 14
000
FTUS44 KTSA 261120
TAFRVS
TAF
KRVS 261120Z 2612/2712 36010G20KT P6SM OVC012
      TEMPO 2612/2616 -SHRA OVC008
     FM262100 33011G18KT P6SM BKN025
     FM270000 30005KT P6SM BKN035=

USA.gov is the U.S. government's official web portal to all federal, state and local government web resources and services.